Time;durP1;ratioP1;P1;durP2;ratioP2;P2;SDS_P1;SDS_P2;PMS_P1;PMS_P2;Temp;Humidity;BMP_temperature;BMP_pressure;BME280_temperature;BME280_humidity;BME280_pressure;Samples;Min_cycle;Max_cycle;Signal;HPM_P1;HPM_P2
2022/05/04 00:00:37;;;;;;;29.02;12.45;;;;;;;;;;5065043;28;20045;-76
2022/05/04 00:03:07;;;;;;;23.48;11.85;;;;;;;;;;5065682;28;20047;-74
2022/05/04 00:05:37;;;;;;;22.73;10.70;;;;;;;;;;5065486;28;20055;-75
2022/05/04 00:08:08;;;;;;;19.58;9.20;;;;;;;;;;5064649;28;20052;-74
2022/05/04 00:10:37;;;;;;;21.15;9.70;;;;;;;;;;5065106;28;20045;-75
2022/05/04 00:13:07;;;;;;;19.55;8.77;;;;;;;;;;5065738;28;20040;-74
2022/05/04 00:15:37;;;;;;;16.63;9.52;;;;;;;;;;5066011;28;20059;-75
2022/05/04 00:18:07;;;;;;;17.98;7.90;;;;;;;;;;5065261;28;20427;-76
2022/05/04 00:20:37;;;;;;;17.48;9.10;;;;;;;;;;5065841;28;20055;-74
2022/05/04 00:23:07;;;;;;;15.35;6.93;;;;;;;;;;5065680;28;20044;-74
2022/05/04 00:25:37;;;;;;;13.70;6.80;;;;;;;;;;5065488;28;20052;-73
2022/05/04 00:28:07;;;;;;;15.70;3.90;;;;;;;;;;5065422;28;20048;-75
2022/05/04 00:30:37;;;;;;;12.20;4.18;;;;;;;;;;5069379;28;20047;-76
2022/05/04 00:33:07;;;;;;;22.30;4.65;;;;;;;;;;5068995;28;20047;-74
2022/05/04 00:35:38;;;;;;;25.73;4.50;;;;;;;;;;5068763;28;20483;-74
2022/05/04 00:38:10;;;;;;;17.60;4.07;;;;;;;;;;5068519;28;20044;-74
2022/05/04 00:40:40;;;;;;;12.93;3.45;;;;;;;;;;5068977;28;20045;-75
2022/05/04 00:43:21;;;;;;;14.80;3.72;;;;;;;;;;5068801;28;20415;-74
2022/05/04 00:45:52;;;;;;;13.68;3.90;;;;;;;;;;5068676;28;20052;-74
2022/05/04 00:48:22;;;;;;;23.15;2.92;;;;;;;;;;5068301;28;20052;-73
2022/05/04 00:50:55;;;;;;;11.98;2.85;;;;;;;;;;5068480;28;20041;-74
2022/05/04 00:53:25;;;;;;;24.90;3.30;;;;;;;;;;5067863;28;20052;-74
2022/05/04 00:55:56;;;;;;;15.93;2.88;;;;;;;;;;5068766;28;20791;-74
2022/05/04 01:01:16;;;;;;;16.80;2.45;;;;;;;;;;5067850;28;20415;-75
2022/05/04 01:03:46;;;;;;;;;;;;;;;;;;5069608;28;20057;-74
2022/05/04 01:06:16;;;;;;;9.52;2.25;;;;;;;;;;5068737;28;19936;-73
2022/05/04 01:08:47;;;;;;;10.30;2.58;;;;;;;;;;5069304;28;20424;-75
2022/05/04 01:11:19;;;;;;;12.00;4.75;;;;;;;;;;5068275;28;20499;-73
2022/05/04 01:14:05;;;;;;;;;;;;;;;;;;5068605;28;20411;-74
2022/05/04 01:16:38;;;;;;;13.45;4.90;;;;;;;;;;5068292;28;19928;-73
2022/05/04 01:19:09;;;;;;;11.93;3.45;;;;;;;;;;5068068;28;20047;-75
2022/05/04 01:21:40;;;;;;;14.23;2.83;;;;;;;;;;5068249;28;20408;-76
2022/05/04 01:24:10;;;;;;;17.67;3.00;;;;;;;;;;5067312;28;20503;-74
2022/05/04 01:26:40;;;;;;;15.93;2.75;;;;;;;;;;5068173;28;20040;-75
2022/05/04 01:29:10;;;;;;;16.70;2.42;;;;;;;;;;5067966;28;20052;-75
2022/05/04 01:31:41;;;;;;;12.70;2.25;;;;;;;;;;5068090;28;20043;-75
2022/05/04 01:34:10;;;;;;;13.73;2.38;;;;;;;;;;5067781;28;20044;-74
2022/05/04 01:36:40;;;;;;;14.07;3.72;;;;;;;;;;5067655;28;20049;-74
2022/05/04 01:39:10;;;;;;;17.85;3.85;;;;;;;;;;5067619;28;20111;-75
2022/05/04 01:44:33;;;;;;;11.73;2.17;;;;;;;;;;5063241;28;20056;-74
2022/05/04 01:47:05;;;;;;;11.95;2.25;;;;;;;;;;5065272;28;20690;-74
2022/05/04 01:49:37;;;;;;;8.77;2.53;;;;;;;;;;5067474;28;20058;-74
2022/05/04 01:52:07;;;;;;;6.10;1.80;;;;;;;;;;5067917;28;20048;-75
2022/05/04 01:54:38;;;;;;;8.60;1.52;;;;;;;;;;5066704;28;20047;-73
2022/05/04 01:57:08;;;;;;;12.48;2.13;;;;;;;;;;5064140;28;20048;-75
2022/05/04 01:59:38;;;;;;;6.15;1.95;;;;;;;;;;5065605;28;20045;-75
2022/05/04 02:02:08;;;;;;;9.45;2.20;;;;;;;;;;5066704;28;20500;-75
2022/05/04 02:04:40;;;;;;;7.43;1.85;;;;;;;;;;5067601;28;20051;-73
2022/05/04 02:07:10;;;;;;;9.98;1.40;;;;;;;;;;5067686;28;20052;-73
2022/05/04 02:09:41;;;;;;;4.43;1.50;;;;;;;;;;5067437;28;20067;-73
2022/05/04 02:12:11;;;;;;;8.97;1.97;;;;;;;;;;5066985;28;20048;-74
2022/05/04 02:14:41;;;;;;;10.88;1.90;;;;;;;;;;5067114;28;20578;-74
2022/05/04 02:17:11;;;;;;;5.43;1.30;;;;;;;;;;5066765;28;20056;-75
2022/05/04 02:19:42;;;;;;;7.97;1.17;;;;;;;;;;5067449;28;20052;-75
2022/05/04 02:22:12;;;;;;;5.22;1.67;;;;;;;;;;5067084;28;20051;-75
2022/05/04 02:24:41;;;;;;;4.93;1.40;;;;;;;;;;5064811;28;20061;-75
2022/05/04 02:27:11;;;;;;;6.65;1.20;;;;;;;;;;5067441;28;20045;-74
2022/05/04 02:29:41;;;;;;;4.32;1.50;;;;;;;;;;5067106;28;20503;-74
2022/05/04 02:32:11;;;;;;;5.70;1.55;;;;;;;;;;5065586;28;20056;-75
2022/05/04 02:40:18;;;;;;;2.55;0.85;;;;;;;;;;5067576;28;20051;-74
2022/05/04 02:42:48;;;;;;;4.20;0.90;;;;;;;;;;5064914;28;20529;-75
2022/05/04 02:45:18;;;;;;;8.13;1.00;;;;;;;;;;5066547;28;20045;-75
2022/05/04 02:47:48;;;;;;;2.55;0.73;;;;;;;;;;5066665;28;20040;-73
2022/05/04 02:50:19;;;;;;;2.33;0.77;;;;;;;;;;5067252;28;20579;-73
2022/05/04 02:52:48;;;;;;;3.17;0.90;;;;;;;;;;5066955;28;20033;-73
2022/05/04 02:55:19;;;;;;;2.28;0.52;;;;;;;;;;5066652;28;20053;-76
2022/05/04 02:57:49;;;;;;;1.20;0.50;;;;;;;;;;5065026;28;20391;-74
2022/05/04 03:00:19;;;;;;;2.85;0.80;;;;;;;;;;5064595;28;20059;-72
2022/05/04 03:02:50;;;;;;;1.95;0.60;;;;;;;;;;5067034;28;20597;-73
2022/05/04 03:05:21;;;;;;;2.70;0.60;;;;;;;;;;5066591;28;20052;-73
2022/05/04 03:07:52;;;;;;;1.42;0.50;;;;;;;;;;5066146;28;20755;-75
2022/05/04 03:10:22;;;;;;;1.25;0.50;;;;;;;;;;5066674;28;20056;-73
2022/05/04 03:12:51;;;;;;;3.55;0.50;;;;;;;;;;5066823;28;20412;-74
2022/05/04 03:15:21;;;;;;;3.88;0.70;;;;;;;;;;5066206;28;20044;-74
2022/05/04 03:17:51;;;;;;;1.27;0.55;;;;;;;;;;5066003;28;20043;-74
2022/05/04 03:20:21;;;;;;;2.58;0.35;;;;;;;;;;5067017;28;20047;-72
2022/05/04 03:22:51;;;;;;;0.35;0.35;;;;;;;;;;5064116;28;20040;-75
2022/05/04 03:25:21;;;;;;;1.75;0.43;;;;;;;;;;5066081;28;20487;-74
2022/05/04 03:27:51;;;;;;;0.43;0.20;;;;;;;;;;5065114;28;20064;-74
2022/05/04 03:30:21;;;;;;;1.55;0.20;;;;;;;;;;5066153;28;20423;-74
2022/05/04 03:32:50;;;;;;;0.38;0.20;;;;;;;;;;5065784;28;20048;-74
2022/05/04 03:35:21;;;;;;;0.52;0.30;;;;;;;;;;5065876;28;20049;-76
2022/05/04 03:37:50;;;;;;;0.32;0.30;;;;;;;;;;5066387;28;20048;-73
2022/05/04 03:40:20;;;;;;;0.10;0.10;;;;;;;;;;5066143;28;20051;-75
2022/05/04 03:42:52;;;;;;;2.78;0.50;;;;;;;;;;5066375;28;20048;-76
2022/05/04 03:45:22;;;;;;;0.25;0.25;;;;;;;;;;5065980;28;20063;-75
2022/05/04 03:47:53;;;;;;;3.17;0.20;;;;;;;;;;5065803;28;20044;-76
2022/05/04 03:50:27;;;;;;;0.32;0.17;;;;;;;;;;5066106;28;20064;-76
2022/05/04 03:52:57;;;;;;;2.65;0.63;;;;;;;;;;5066298;28;21098;-75
2022/05/04 03:55:27;;;;;;;3.13;0.20;;;;;;;;;;5066004;28;20063;-74
2022/05/04 03:57:57;;;;;;;1.00;0.10;;;;;;;;;;5066057;28;20052;-74
2022/05/04 04:00:27;;;;;;;5.53;0.38;;;;;;;;;;5065809;28;20510;-74
2022/05/04 04:02:57;;;;;;;0.65;0.10;;;;;;;;;;5065923;28;20427;-75
2022/05/04 04:05:28;;;;;;;0.45;0.13;;;;;;;;;;5069330;28;20558;-74
2022/05/04 04:07:58;;;;;;;1.58;0.30;;;;;;;;;;5069852;28;20498;-74
2022/05/04 04:10:27;;;;;;;1.05;0.22;;;;;;;;;;5069931;28;20056;-75
2022/05/04 04:12:58;;;;;;;1.33;0.30;;;;;;;;;;5069258;28;20048;-73
2022/05/04 04:15:28;;;;;;;3.55;0.40;;;;;;;;;;5068165;28;20052;-75
2022/05/04 04:17:58;;;;;;;0.82;0.30;;;;;;;;;;5069716;28;20404;-72
2022/05/04 04:23:16;;;;;;;3.60;0.25;;;;;;;;;;5069142;28;20044;-75
2022/05/04 04:25:46;;;;;;;1.83;0.30;;;;;;;;;;5069139;28;20055;-75
2022/05/04 04:28:16;;;;;;;1.40;0.30;;;;;;;;;;5069288;28;20064;-74
2022/05/04 04:30:46;;;;;;;1.45;0.30;;;;;;;;;;5068048;28;20127;-72
2022/05/04 04:33:16;;;;;;;1.42;0.30;;;;;;;;;;5069272;28;20040;-72
2022/05/04 04:35:46;;;;;;;2.40;0.30;;;;;;;;;;5068887;28;20502;-76
2022/05/04 04:38:16;;;;;;;1.23;0.40;;;;;;;;;;5068849;28;20045;-73
2022/05/04 04:40:46;;;;;;;3.53;0.50;;;;;;;;;;5069707;28;20387;-74
2022/05/04 04:43:16;;;;;;;6.43;0.77;;;;;;;;;;5069086;28;20044;-74
2022/05/04 04:45:47;;;;;;;5.15;0.65;;;;;;;;;;5068035;28;20428;-75
2022/05/04 04:48:18;;;;;;;2.15;0.50;;;;;;;;;;5069036;28;20059;-73
2022/05/04 04:50:49;;;;;;;3.38;0.70;;;;;;;;;;5069123;28;20045;-74
2022/05/04 04:53:25;;;;;;;6.68;0.70;;;;;;;;;;5068916;28;20059;-76
2022/05/04 04:55:54;;;;;;;2.53;0.65;;;;;;;;;;5068884;28;20047;-75
2022/05/04 04:58:25;;;;;;;4.25;0.70;;;;;;;;;;5068574;28;20052;-74
2022/05/04 05:00:55;;;;;;;9.68;1.65;;;;;;;;;;5067899;28;20040;-75
2022/05/04 05:03:25;;;;;;;3.60;0.93;;;;;;;;;;5067128;28;20062;-74
2022/05/04 05:05:55;;;;;;;3.33;0.60;;;;;;;;;;5069311;28;20492;-74
2022/05/04 05:08:25;;;;;;;8.48;1.15;;;;;;;;;;5068331;28;20519;-74
2022/05/04 05:10:55;;;;;;;9.90;1.10;;;;;;;;;;5068140;28;20049;-75
2022/05/04 05:13:25;;;;;;;4.18;1.15;;;;;;;;;;5067959;28;20044;-73
2022/05/04 05:16:07;;;;;;;4.07;0.90;;;;;;;;;;5067813;28;20064;-74
2022/05/04 05:18:38;;;;;;;10.80;1.05;;;;;;;;;;5068648;28;20053;-74
2022/05/04 05:21:09;;;;;;;4.10;0.80;;;;;;;;;;5068408;28;20052;-74
2022/05/04 05:23:40;;;;;;;10.40;1.40;;;;;;;;;;5067732;28;20048;-73
2022/05/04 05:26:10;;;;;;;14.88;1.88;;;;;;;;;;5067921;28;20063;-74
2022/05/04 05:28:40;;;;;;;10.43;1.05;;;;;;;;;;5068107;28;20044;-74
2022/05/04 05:31:10;;;;;;;6.85;1.27;;;;;;;;;;5068410;28;20044;-75
2022/05/04 05:33:40;;;;;;;9.68;1.20;;;;;;;;;;5068674;28;20075;-75
2022/05/04 05:36:10;;;;;;;7.63;1.65;;;;;;;;;;5068076;28;20052;-75
2022/05/04 05:38:40;;;;;;;10.55;1.17;;;;;;;;;;5067897;28;20492;-74
2022/05/04 05:41:10;;;;;;;7.82;1.35;;;;;;;;;;5068086;28;20044;-73
2022/05/04 05:43:40;;;;;;;5.53;0.73;;;;;;;;;;5065956;28;20045;-73
2022/05/04 05:46:10;;;;;;;13.18;1.30;;;;;;;;;;5066912;28;20051;-76
2022/05/04 05:48:40;;;;;;;10.50;1.33;;;;;;;;;;5067403;28;20044;-74
2022/05/04 05:51:10;;;;;;;11.48;1.48;;;;;;;;;;5068281;28;20051;-73
2022/05/04 05:53:40;;;;;;;10.05;1.52;;;;;;;;;;5067644;28;20048;-74
2022/05/04 05:56:10;;;;;;;13.25;1.55;;;;;;;;;;5067815;28;20071;-74
2022/05/04 05:58:40;;;;;;;11.97;1.60;;;;;;;;;;5067795;28;20040;-75
2022/05/04 06:01:11;;;;;;;13.60;2.17;;;;;;;;;;5067880;28;20051;-74
2022/05/04 06:03:41;;;;;;;10.90;2.00;;;;;;;;;;5067996;28;20051;-75
2022/05/04 06:06:12;;;;;;;8.25;1.75;;;;;;;;;;5067091;28;20063;-73
2022/05/04 06:08:41;;;;;;;;;;;;;;;;;;5066170;28;20053;-75
2022/05/04 06:11:11;;;;;;;15.57;1.98;;;;;;;;;;5067003;28;19924;-73
2022/05/04 06:13:41;;;;;;;11.43;1.52;;;;;;;;;;5067137;28;20515;-75
2022/05/04 06:16:11;;;;;;;12.68;2.25;;;;;;;;;;5067509;28;20411;-73
2022/05/04 06:18:41;;;;;;;8.85;1.92;;;;;;;;;;5066845;28;20052;-75
2022/05/04 06:21:11;;;;;;;11.75;1.40;;;;;;;;;;5067330;28;20067;-75
2022/05/04 06:23:41;;;;;;;16.33;1.83;;;;;;;;;;5067148;28;20388;-74
2022/05/04 06:26:11;;;;;;;12.73;1.80;;;;;;;;;;5065611;28;20052;-74
2022/05/04 06:28:41;;;;;;;11.73;1.95;;;;;;;;;;5065774;28;20452;-76
2022/05/04 06:34:07;;;;;;;17.02;1.63;;;;;;;;;;5067167;28;20051;-76
2022/05/04 06:36:42;;;;;;;12.85;1.55;;;;;;;;;;5066990;28;20510;-73
2022/05/04 06:39:12;;;;;;;19.50;2.00;;;;;;;;;;5067046;28;20043;-75
2022/05/04 06:41:42;;;;;;;12.45;1.52;;;;;;;;;;5066770;28;20538;-74
2022/05/04 06:44:12;;;;;;;14.15;2.30;;;;;;;;;;5066838;28;20522;-74
2022/05/04 06:46:42;;;;;;;13.50;1.83;;;;;;;;;;5066652;28;20064;-75
2022/05/04 06:49:13;;;;;;;15.98;2.55;;;;;;;;;;5066245;28;20044;-74
2022/05/04 06:51:43;;;;;;;15.30;2.30;;;;;;;;;;5067390;28;20060;-76
2022/05/04 06:54:13;;;;;;;14.70;2.70;;;;;;;;;;5065014;28;20056;-75
2022/05/04 06:56:58;;;;;;;16.23;2.42;;;;;;;;;;5065308;28;20063;-75
2022/05/04 06:59:28;;;;;;;18.02;2.30;;;;;;;;;;5066201;28;20044;-75
2022/05/04 07:01:58;;;;;;;14.40;2.20;;;;;;;;;;5065071;28;20040;-76
2022/05/04 07:04:28;;;;;;;13.82;2.00;;;;;;;;;;5065913;28;20056;-74
2022/05/04 07:06:58;;;;;;;12.60;2.10;;;;;;;;;;5066549;28;20040;-74
2022/05/04 07:09:28;;;;;;;15.02;2.15;;;;;;;;;;5066189;28;20056;-76
2022/05/04 07:11:58;;;;;;;13.85;1.92;;;;;;;;;;5065857;28;20040;-73
2022/05/04 07:14:28;;;;;;;12.63;1.75;;;;;;;;;;5064488;28;20492;-74
2022/05/04 07:16:58;;;;;;;12.60;1.67;;;;;;;;;;5066293;28;20420;-75
2022/05/04 07:19:28;;;;;;;12.00;2.08;;;;;;;;;;5066403;28;20088;-75
2022/05/04 07:21:59;;;;;;;14.73;1.88;;;;;;;;;;5065835;28;20060;-73
2022/05/04 07:24:29;;;;;;;20.92;2.40;;;;;;;;;;5065964;28;20044;-75
2022/05/04 07:27:00;;;;;;;10.68;1.35;;;;;;;;;;5066244;28;20055;-74
2022/05/04 07:29:30;;;;;;;10.88;1.90;;;;;;;;;;5066500;28;20056;-75
2022/05/04 07:32:00;;;;;;;13.77;1.73;;;;;;;;;;5066483;28;20052;-75
2022/05/04 07:34:30;;;;;;;8.50;1.30;;;;;;;;;;5064988;28;20048;-75
2022/05/04 07:37:00;;;;;;;16.13;1.95;;;;;;;;;;5065149;28;20534;-74
2022/05/04 07:42:26;;;;;;;9.90;1.20;;;;;;;;;;5070269;28;20511;-75
2022/05/04 07:45:01;;;;;;;9.95;1.42;;;;;;;;;;5071094;28;20396;-76
2022/05/04 07:47:36;;;;;;;11.00;1.25;;;;;;;;;;5070351;28;20051;-75
2022/05/04 07:50:08;;;;;;;8.98;1.25;;;;;;;;;;5070335;28;20048;-73
2022/05/04 07:52:39;;;;;;;10.07;1.50;;;;;;;;;;5070513;28;20044;-76
2022/05/04 07:55:10;;;;;;;7.03;1.30;;;;;;;;;;5070798;28;20622;-73
2022/05/04 07:57:41;;;;;;;11.20;1.52;;;;;;;;;;5069942;28;20044;-76
2022/05/04 08:05:49;;;;;;;6.25;1.00;;;;;;;;;;5069708;28;20538;-74
2022/05/04 08:08:19;;;;;;;6.63;1.10;;;;;;;;;;5068921;28;20049;-74
2022/05/04 08:10:49;;;;;;;7.55;1.35;;;;;;;;;;5068719;28;20049;-76
2022/05/04 08:13:20;;;;;;;6.45;1.20;;;;;;;;;;5069443;28;20048;-75
2022/05/04 08:15:49;;;;;;;7.95;1.40;;;;;;;;;;5070076;28;20482;-73
2022/05/04 08:18:20;;;;;;;11.25;1.63;;;;;;;;;;5069078;28;20055;-73
2022/05/04 08:20:50;;;;;;;9.55;1.25;;;;;;;;;;5069057;28;20514;-75
2022/05/04 08:23:20;;;;;;;5.78;0.90;;;;;;;;;;5068755;28;20048;-75
2022/05/04 08:25:50;;;;;;;8.98;1.13;;;;;;;;;;5069096;28;20412;-73
2022/05/04 08:28:21;;;;;;;5.45;1.30;;;;;;;;;;5069251;28;20049;-73
2022/05/04 08:30:51;;;;;;;4.90;1.10;;;;;;;;;;5069246;28;20407;-74
2022/05/04 08:33:21;;;;;;;8.35;1.50;;;;;;;;;;5068224;28;20059;-74
2022/05/04 08:35:51;;;;;;;7.05;1.17;;;;;;;;;;5068677;28;20051;-75
2022/05/04 08:38:22;;;;;;;6.03;1.10;;;;;;;;;;5069053;28;20141;-74
2022/05/04 08:40:56;;;;;;;5.37;1.00;;;;;;;;;;5069246;28;20052;-76
2022/05/04 08:43:27;;;;;;;13.75;1.38;;;;;;;;;;5068945;28;20048;-75
2022/05/04 08:46:01;;;;;;;11.98;1.42;;;;;;;;;;5067212;28;20053;-76
2022/05/04 08:48:32;;;;;;;6.60;1.40;;;;;;;;;;5068271;28;20522;-76
2022/05/04 08:51:05;;;;;;;9.45;1.20;;;;;;;;;;5068406;28;20415;-74
2022/05/04 08:53:37;;;;;;;6.05;1.23;;;;;;;;;;5068407;28;20049;-75
2022/05/04 08:56:06;;;;;;;;;;;;;;;;;;5069054;28;20049;-75
2022/05/04 08:58:37;;;;;;;10.00;1.60;;;;;;;;;;5068329;28;19931;-75
2022/05/04 09:01:08;;;;;;;7.95;1.50;;;;;;;;;;5067421;28;20044;-76
2022/05/04 09:03:38;;;;;;;4.10;1.00;;;;;;;;;;5069238;28;20056;-75
2022/05/04 09:06:08;;;;;;;8.35;1.25;;;;;;;;;;5068594;28;20052;-76
2022/05/04 09:09:10;;;;;;;4.38;0.90;;;;;;;;;;5068008;28;20705;-74
2022/05/04 09:11:42;;;;;;;9.65;1.10;;;;;;;;;;5068541;28;20045;-75
2022/05/04 09:14:20;;;;;;;7.03;0.90;;;;;;;;;;5068991;28;20704;-75
2022/05/04 09:16:50;;;;;;;5.72;1.15;;;;;;;;;;5068308;28;20479;-75
2022/05/04 09:19:21;;;;;;;8.18;1.10;;;;;;;;;;5067387;28;20052;-79
2022/05/04 09:21:52;;;;;;;9.95;1.10;;;;;;;;;;5068774;28;20032;-74
2022/05/04 09:24:28;;;;;;;4.10;1.10;;;;;;;;;;5068669;28;20063;-75
2022/05/04 09:26:58;;;;;;;9.60;1.42;;;;;;;;;;5066672;28;20527;-74
2022/05/04 09:29:36;;;;;;;8.48;1.55;;;;;;;;;;5068234;28;20496;-76
2022/05/04 09:32:14;;;;;;;8.05;1.50;;;;;;;;;;5068383;28;20041;-74
2022/05/04 09:34:51;;;;;;;8.13;1.20;;;;;;;;;;5068318;28;20492;-76
2022/05/04 09:45:55;;;;;;;9.10;1.23;;;;;;;;;;5068011;28;20427;-75
2022/05/04 09:48:29;;;;;;;10.80;2.00;;;;;;;;;;5067586;28;20045;-74
2022/05/04 09:51:07;;;;;;;9.55;1.50;;;;;;;;;;5068063;28;20063;-73
2022/05/04 09:53:38;;;;;;;15.18;2.13;;;;;;;;;;5067838;28;20530;-73
2022/05/04 09:56:09;;;;;;;10.88;1.27;;;;;;;;;;5067827;28;20048;-73
2022/05/04 09:58:40;;;;;;;8.82;1.70;;;;;;;;;;5067402;28;20045;-75
2022/05/04 10:01:11;;;;;;;6.17;1.57;;;;;;;;;;5066903;28;20040;-74
2022/05/04 10:03:43;;;;;;;9.70;1.55;;;;;;;;;;5067597;28;20286;-75
2022/05/04 10:06:13;;;;;;;9.93;1.63;;;;;;;;;;5067150;28;20048;-75
2022/05/04 10:08:44;;;;;;;8.85;1.50;;;;;;;;;;5067952;28;20052;-74
2022/05/04 10:11:14;;;;;;;9.77;1.65;;;;;;;;;;5067642;28;20052;-75
2022/05/04 10:13:45;;;;;;;11.57;1.50;;;;;;;;;;5067370;28;20044;-75
2022/05/04 10:16:16;;;;;;;9.48;1.55;;;;;;;;;;5067314;28;20693;-75
2022/05/04 10:18:48;;;;;;;11.43;2.00;;;;;;;;;;5067560;28;20407;-76
2022/05/04 10:21:19;;;;;;;10.52;1.58;;;;;;;;;;5066595;28;20048;-76
2022/05/04 10:23:55;;;;;;;15.10;1.75;;;;;;;;;;5066906;28;20525;-74
2022/05/04 10:26:37;;;;;;;15.45;2.10;;;;;;;;;;5066261;28;20059;-77
2022/05/04 10:32:55;;;;;;;12.25;1.90;;;;;;;;;;5067477;28;20048;-75
2022/05/04 10:35:28;;;;;;;10.75;1.70;;;;;;;;;;5067105;28;20504;-75
2022/05/04 10:37:58;;;;;;;13.65;2.08;;;;;;;;;;5065230;28;20511;-74
2022/05/04 10:40:34;;;;;;;7.60;1.75;;;;;;;;;;5066074;28;20594;-76
2022/05/04 10:43:09;;;;;;;10.85;1.65;;;;;;;;;;5066441;28;20056;-74
2022/05/04 10:45:51;;;;;;;8.18;1.80;;;;;;;;;;5066414;28;20535;-73
2022/05/04 10:48:24;;;;;;;13.10;1.75;;;;;;;;;;5065950;28;20048;-76
2022/05/04 10:51:02;;;;;;;10.43;1.50;;;;;;;;;;5066809;28;20503;-74
2022/05/04 10:53:33;;;;;;;5.93;1.45;;;;;;;;;;5066934;28;20546;-75
2022/05/04 10:56:07;;;;;;;9.32;1.70;;;;;;;;;;5065286;28;20049;-74
2022/05/04 10:58:47;;;;;;;15.10;1.73;;;;;;;;;;5066897;28;20055;-75
2022/05/04 11:01:30;;;;;;;13.65;2.47;;;;;;;;;;5066788;28;20048;-75
2022/05/04 11:04:10;;;;;;;6.25;1.05;;;;;;;;;;5065733;28;20495;-75
2022/05/04 11:07:07;;;;;;;7.15;1.33;;;;;;;;;;5066421;28;20063;-74
2022/05/04 11:09:47;;;;;;;5.40;1.08;;;;;;;;;;5065428;28;20744;-74
2022/05/04 11:12:21;;;;;;;9.43;1.73;;;;;;;;;;5066081;28;20048;-73
2022/05/04 11:14:52;;;;;;;6.03;1.50;;;;;;;;;;5066008;28;20068;-74
2022/05/04 11:17:23;;;;;;;6.80;1.20;;;;;;;;;;5065243;28;20051;-73
2022/05/04 11:19:53;;;;;;;9.33;1.20;;;;;;;;;;5065985;28;20045;-73
2022/05/04 11:22:24;;;;;;;8.60;1.75;;;;;;;;;;5066125;28;20490;-74
2022/05/04 11:25:14;;;;;;;6.07;1.37;;;;;;;;;;5066078;28;20041;-77
2022/05/04 11:27:44;;;;;;;4.68;1.23;;;;;;;;;;5065956;28;20067;-75
2022/05/04 11:30:14;;;;;;;7.90;1.50;;;;;;;;;;5066366;28;20408;-76
2022/05/04 11:32:44;;;;;;;11.23;1.40;;;;;;;;;;5066192;28;20427;-75
2022/05/04 11:35:15;;;;;;;10.82;1.25;;;;;;;;;;5065987;28;20415;-75
2022/05/04 11:37:44;;;;;;;8.35;1.83;;;;;;;;;;5066040;28;20056;-75
2022/05/04 11:40:16;;;;;;;7.30;1.40;;;;;;;;;;5065315;28;20053;-73
2022/05/04 11:42:48;;;;;;;8.35;1.50;;;;;;;;;;5065460;28;20051;-75
2022/05/04 11:45:20;;;;;;;7.88;1.15;;;;;;;;;;5066249;28;20041;-76
2022/05/04 11:47:51;;;;;;;4.43;1.05;;;;;;;;;;5065887;28;20499;-75
2022/05/04 11:50:21;;;;;;;7.25;1.08;;;;;;;;;;5065773;28;20060;-75
2022/05/04 11:52:53;;;;;;;8.43;1.60;;;;;;;;;;5065966;28;20059;-74
2022/05/04 11:55:23;;;;;;;7.43;1.50;;;;;;;;;;5065693;28;20056;-75
2022/05/04 11:57:59;;;;;;;4.45;0.95;;;;;;;;;;5066027;28;20396;-78
2022/05/04 12:00:29;;;;;;;9.60;1.30;;;;;;;;;;5064871;28;20053;-75
2022/05/04 12:02:59;;;;;;;5.85;1.77;;;;;;;;;;5066062;28;20048;-75
2022/05/04 12:05:29;;;;;;;8.73;1.37;;;;;;;;;;5066099;28;20050;-73
2022/05/04 12:08:04;;;;;;;8.50;1.20;;;;;;;;;;5064453;28;20416;-75
2022/05/04 12:10:35;;;;;;;10.27;1.40;;;;;;;;;;5065782;28;20673;-75
2022/05/04 12:13:05;;;;;;;9.13;1.33;;;;;;;;;;5065791;28;20507;-75
2022/05/04 12:15:37;;;;;;;8.27;1.50;;;;;;;;;;5066191;28;20063;-76
2022/05/04 12:18:07;;;;;;;7.50;1.42;;;;;;;;;;5066090;28;20495;-77
2022/05/04 12:20:37;;;;;;;13.55;1.63;;;;;;;;;;5064980;28;20044;-75
2022/05/04 12:23:07;;;;;;;7.43;1.10;;;;;;;;;;5064831;28;20041;-76
2022/05/04 12:25:44;;;;;;;10.20;1.67;;;;;;;;;;5068602;28;20051;-76
2022/05/04 12:28:14;;;;;;;9.50;1.52;;;;;;;;;;5069559;28;20049;-73
2022/05/04 12:33:35;;;;;;;9.70;1.60;;;;;;;;;;5069105;28;20052;-76
2022/05/04 12:36:11;;;;;;;8.32;1.30;;;;;;;;;;5069152;28;20055;-75
2022/05/04 12:38:50;;;;;;;11.93;1.42;;;;;;;;;;5067817;28;20059;-76
2022/05/04 12:41:24;;;;;;;7.60;1.38;;;;;;;;;;5068880;28;20047;-76
2022/05/04 12:43:54;;;;;;;5.80;1.58;;;;;;;;;;5069081;28;20045;-75
2022/05/04 12:46:24;;;;;;;6.03;1.20;;;;;;;;;;5068938;28;20111;-75
2022/05/04 12:48:54;;;;;;;6.13;1.40;;;;;;;;;;5069454;28;20059;-76
2022/05/04 12:51:25;;;;;;;7.35;1.10;;;;;;;;;;5069223;28;20048;-76
2022/05/04 12:53:56;;;;;;;8.20;1.45;;;;;;;;;;5069530;28;20052;-74
2022/05/04 12:59:16;;;;;;;4.90;1.27;;;;;;;;;;5068631;28;20041;-76
2022/05/04 13:01:46;;;;;;;5.90;1.27;;;;;;;;;;5067134;28;20049;-75
2022/05/04 13:04:18;;;;;;;5.20;1.20;;;;;;;;;;5067903;28;20086;-75
2022/05/04 13:06:49;;;;;;;2.97;0.85;;;;;;;;;;5069349;28;20611;-75
2022/05/04 13:09:19;;;;;;;10.95;1.27;;;;;;;;;;5068297;28;20052;-76
2022/05/04 13:11:49;;;;;;;4.22;1.00;;;;;;;;;;5068990;28;20044;-75
2022/05/04 13:14:22;;;;;;;5.47;1.05;;;;;;;;;;5068193;28;20523;-74
2022/05/04 13:16:52;;;;;;;6.55;1.05;;;;;;;;;;5068703;28;20055;-75
2022/05/04 13:19:22;;;;;;;10.45;1.50;;;;;;;;;;5069356;28;20044;-75
2022/05/04 13:21:52;;;;;;;7.40;0.93;;;;;;;;;;5068226;28;20067;-75
2022/05/04 13:24:22;;;;;;;8.40;1.42;;;;;;;;;;5068118;28;20063;-75
2022/05/04 13:26:52;;;;;;;6.45;1.30;;;;;;;;;;5067954;28;20069;-73
2022/05/04 13:29:22;;;;;;;4.45;0.95;;;;;;;;;;5068000;28;20147;-75
2022/05/04 13:31:52;;;;;;;5.18;0.75;;;;;;;;;;5068073;28;20519;-75
2022/05/04 13:34:21;;;;;;;3.83;0.55;;;;;;;;;;5050346;28;20063;-76
2022/05/04 13:36:51;;;;;;;3.35;0.40;;;;;;;;;;5067992;28;20059;-76
2022/05/04 13:39:23;;;;;;;2.72;0.60;;;;;;;;;;5067340;28;20139;-76
2022/05/04 13:41:53;;;;;;;1.60;0.50;;;;;;;;;;5067710;28;20071;-75
2022/05/04 13:44:24;;;;;;;0.85;0.22;;;;;;;;;;5067867;28;20045;-75
2022/05/04 13:46:55;;;;;;;1.75;0.30;;;;;;;;;;5068740;28;20060;-76
2022/05/04 13:49:26;;;;;;;2.63;0.50;;;;;;;;;;5067717;28;20075;-75
2022/05/04 13:54:44;;;;;;;1.20;0.20;;;;;;;;;;5066549;28;20052;-76
2022/05/04 13:57:14;;;;;;;0.30;0.20;;;;;;;;;;5067659;28;20055;-76
2022/05/04 13:59:45;;;;;;;0.10;0.10;;;;;;;;;;5067762;28;20071;-80
2022/05/04 14:02:15;;;;;;;0.77;0.20;;;;;;;;;;5067495;28;20048;-76
2022/05/04 14:04:45;;;;;;;0.05;0.00;;;;;;;;;;5067643;28;20040;-76
2022/05/04 14:07:15;;;;;;;0.40;0.17;;;;;;;;;;5067786;28;20053;-75
2022/05/04 14:09:46;;;;;;;0.68;0.20;;;;;;;;;;5066697;28;20475;-76
2022/05/04 14:12:16;;;;;;;0.80;0.30;;;;;;;;;;5067985;28;20048;-75
2022/05/04 14:15:04;;;;;;;0.22;0.10;;;;;;;;;;5067146;28;20048;-76
2022/05/04 14:17:34;;;;;;;0.40;0.20;;;;;;;;;;5067234;28;20063;-75
2022/05/04 14:20:06;;;;;;;0.90;0.30;;;;;;;;;;5065627;28;20439;-76
2022/05/04 14:22:36;;;;;;;2.10;0.30;;;;;;;;;;5065354;28;20541;-75
2022/05/04 14:25:06;;;;;;;0.73;0.20;;;;;;;;;;5066689;28;20055;-75
2022/05/04 14:27:36;;;;;;;0.30;0.17;;;;;;;;;;5067063;28;20059;-76
2022/05/04 14:30:07;;;;;;;1.17;0.38;;;;;;;;;;5067039;28;20044;-76
2022/05/04 14:32:38;;;;;;;0.98;0.40;;;;;;;;;;5066554;28;20060;-77
2022/05/04 14:35:10;;;;;;;0.63;0.30;;;;;;;;;;5067234;28;20507;-77
2022/05/04 14:37:40;;;;;;;0.15;0.05;;;;;;;;;;5067293;28;20044;-76
2022/05/04 14:40:11;;;;;;;1.75;0.52;;;;;;;;;;5067354;28;20044;-76
2022/05/04 14:42:41;;;;;;;0.90;0.20;;;;;;;;;;5065281;28;20044;-76
2022/05/04 14:45:11;;;;;;;2.72;0.13;;;;;;;;;;5066779;28;20053;-76
2022/05/04 14:47:41;;;;;;;0.67;0.20;;;;;;;;;;5066442;28;20110;-76
2022/05/04 14:50:11;;;;;;;1.85;0.10;;;;;;;;;;5066465;28;20052;-75
2022/05/04 14:52:42;;;;;;;0.45;0.38;;;;;;;;;;5066291;28;20047;-75
2022/05/04 14:55:12;;;;;;;2.00;0.40;;;;;;;;;;5065193;28;20052;-76
2022/05/04 14:57:42;;;;;;;3.33;0.45;;;;;;;;;;5066658;28;20040;-76
2022/05/04 15:00:12;;;;;;;2.05;0.30;;;;;;;;;;5066913;28;20044;-76
2022/05/04 15:05:31;;;;;;;0.60;0.30;;;;;;;;;;5067155;28;19924;-75
2022/05/04 15:08:02;;;;;;;1.45;0.35;;;;;;;;;;5066358;28;20210;-76
2022/05/04 15:10:32;;;;;;;0.73;0.25;;;;;;;;;;5065524;28;20056;-75
2022/05/04 15:13:02;;;;;;;4.57;0.20;;;;;;;;;;5066234;28;20056;-77
2022/05/04 15:15:32;;;;;;;0.80;0.25;;;;;;;;;;5066307;28;20546;-77
2022/05/04 15:18:02;;;;;;;6.25;0.30;;;;;;;;;;5066623;28;20071;-75
2022/05/04 15:20:32;;;;;;;1.47;0.37;;;;;;;;;;5065981;28;20052;-75
2022/05/04 15:23:02;;;;;;;0.45;0.30;;;;;;;;;;5063065;28;20052;-76
2022/05/04 15:25:33;;;;;;;1.20;0.30;;;;;;;;;;5062596;28;20052;-76
2022/05/04 15:28:03;;;;;;;1.92;0.45;;;;;;;;;;5062380;28;20510;-75
2022/05/04 15:30:35;;;;;;;0.43;0.35;;;;;;;;;;5065316;28;20052;-75
2022/05/04 15:33:05;;;;;;;2.08;0.50;;;;;;;;;;5066359;28;20060;-75
2022/05/04 15:35:35;;;;;;;3.75;0.55;;;;;;;;;;5066630;28;20057;-75
2022/05/04 15:38:05;;;;;;;1.80;0.38;;;;;;;;;;5066173;28;20384;-74
2022/05/04 15:40:36;;;;;;;3.78;0.75;;;;;;;;;;5066173;28;20537;-74
2022/05/04 15:43:06;;;;;;;;;;;;;;;;;;5066793;28;20036;-74
2022/05/04 15:45:36;;;;;;;5.85;0.88;;;;;;;;;;5066556;28;19932;-78
2022/05/04 15:48:06;;;;;;;3.42;1.00;;;;;;;;;;5066202;28;20051;-74
2022/05/04 15:50:39;;;;;;;5.90;1.30;;;;;;;;;;5066152;28;20053;-75
2022/05/04 15:53:09;;;;;;;3.85;0.80;;;;;;;;;;5067043;28;20075;-76